Time;durP1;ratioP1;P1;durP2;ratioP2;P2;SDS_P1;SDS_P2;PMS_P1;PMS_P2;Temp;Humidity;BMP_temperature;BMP_pressure;BME280_temperature;BME280_humidity;BME280_pressure;Samples;Min_cycle;Max_cycle;Signal;HPM_P1;HPM_P2
2022/06/29 00:02:08;;;;;;;318.50;299.30;;;15.80;71.60;;;;;;5003623;28;20030;-66
2022/06/29 00:04:34;;;;;;;276.50;259.17;;;15.80;71.70;;;;;;5003544;28;20848;-66
2022/06/29 00:06:59;;;;;;;278.77;262.43;;;15.70;71.80;;;;;;5021227;28;20096;-66
2022/06/29 00:09:25;;;;;;;282.47;266.27;;;15.70;72.00;;;;;;5018417;28;20042;-66
2022/06/29 00:11:51;;;;;;;282.63;266.07;;;15.60;72.30;;;;;;5005076;28;20080;-66
2022/06/29 00:14:16;;;;;;;327.27;307.77;;;15.60;72.40;;;;;;4988316;28;20046;-66
2022/06/29 00:16:42;;;;;;;233.73;220.10;;;15.50;72.50;;;;;;4988336;28;20053;-66
2022/06/29 00:19:08;;;;;;;231.27;217.57;;;15.50;72.50;;;;;;5019254;28;20045;-66
2022/06/29 00:21:34;;;;;;;252.30;237.97;;;15.40;72.80;;;;;;4995815;28;20487;-66
2022/06/29 00:23:59;;;;;;;224.60;211.27;;;15.40;72.90;;;;;;5016802;28;20069;-66
2022/06/29 00:26:26;;;;;;;228.87;215.23;;;15.40;73.00;;;;;;5004549;28;20323;-66
2022/06/29 00:28:52;;;;;;;201.67;189.73;;;15.40;73.00;;;;;;5004866;28;20202;-66
2022/06/29 00:31:18;;;;;;;217.40;204.67;;;15.40;73.10;;;;;;5004616;28;20387;-66
2022/06/29 00:33:44;;;;;;;244.03;229.13;;;15.30;73.40;;;;;;5004607;28;20041;-66
2022/06/29 00:36:10;;;;;;;226.90;213.40;;;15.30;73.40;;;;;;4985222;28;20042;-66
2022/06/29 00:38:35;;;;;;;216.47;203.50;;;15.30;73.60;;;;;;5003930;28;20309;-66
2022/06/29 00:41:01;;;;;;;168.83;159.00;;;15.30;73.50;;;;;;4997055;28;20066;-66
2022/06/29 00:43:27;;;;;;;204.43;192.00;;;15.30;73.60;;;;;;4988084;28;20049;-66
2022/06/29 00:45:53;;;;;;;170.93;160.70;;;15.20;73.70;;;;;;5000941;28;20129;-66
2022/06/29 00:48:18;;;;;;;199.30;187.43;;;15.20;73.80;;;;;;4988963;28;20470;-66
2022/06/29 00:50:46;;;;;;;227.13;213.03;;;15.20;73.90;;;;;;5020870;28;20088;-66
2022/06/29 00:53:16;;;;;;;246.57;231.30;;;15.20;74.20;;;;;;5005151;28;20137;-66
2022/06/29 00:55:44;;;;;;;199.67;188.03;;;15.20;74.50;;;;;;5000072;28;20313;-66
2022/06/29 00:58:10;;;;;;;296.07;278.17;;;15.10;74.50;;;;;;4984870;28;20404;-66
2022/06/29 01:00:37;;;;;;;275.50;258.87;;;15.10;75.10;;;;;;5008001;28;20292;-66
2022/06/29 01:03:03;;;;;;;267.20;251.00;;;15.10;75.30;;;;;;5008681;28;20297;-66
2022/06/29 01:05:31;;;;;;;287.17;269.17;;;15.10;75.40;;;;;;5008363;28;20308;-66
2022/06/29 01:07:57;;;;;;;266.90;249.67;;;15.00;75.40;;;;;;5002563;28;20289;-66
2022/06/29 01:10:24;;;;;;;268.27;251.93;;;15.00;75.20;;;;;;4991927;28;20359;-66
2022/06/29 01:12:53;;;;;;;209.27;196.43;;;15.00;75.40;;;;;;5025393;28;20300;-66
2022/06/29 01:15:20;;;;;;;192.53;181.00;;;15.00;75.40;;;;;;5008223;28;20387;-66
2022/06/29 01:17:46;;;;;;;223.27;209.97;;;14.90;75.60;;;;;;5006315;28;20309;-66
2022/06/29 01:20:12;;;;;;;255.97;240.53;;;14.90;75.70;;;;;;5008194;28;20367;-66
2022/06/29 01:22:39;;;;;;;272.17;255.07;;;14.90;75.90;;;;;;5020833;28;20300;-66
2022/06/29 01:25:06;;;;;;;260.80;244.20;;;14.90;76.40;;;;;;5005660;28;20813;-66
2022/06/29 01:27:32;;;;;;;248.53;233.60;;;14.90;76.10;;;;;;4991680;28;20311;-66
2022/06/29 01:29:58;;;;;;;190.27;178.83;;;14.80;76.10;;;;;;5008315;28;20286;-67
2022/06/29 01:32:23;;;;;;;185.03;174.23;;;14.80;76.30;;;;;;5008714;28;20289;-67
2022/06/29 01:34:50;;;;;;;216.53;203.70;;;14.80;76.10;;;;;;5001227;28;20148;-67
2022/06/29 01:37:16;;;;;;;239.20;224.83;;;14.80;76.40;;;;;;5006153;28;20107;-67
2022/06/29 01:39:42;;;;;;;205.10;192.97;;;14.80;76.30;;;;;;5007763;28;20850;-67
2022/06/29 01:42:09;;;;;;;265.20;250.03;;;14.80;76.40;;;;;;5006851;28;20773;-67
2022/06/29 01:44:35;;;;;;;257.10;241.57;;;14.80;76.50;;;;;;5007964;28;20477;-67
2022/06/29 01:47:02;;;;;;;256.10;241.60;;;14.80;76.10;;;;;;5003291;28;20290;-67
2022/06/29 01:49:28;;;;;;;304.23;286.43;;;14.70;76.10;;;;;;5017651;28;20335;-67
2022/06/29 01:51:55;;;;;;;221.50;208.57;;;14.70;76.10;;;;;;5007823;28;20304;-67
2022/06/29 01:54:21;;;;;;;279.20;262.43;;;14.70;76.20;;;;;;5007573;28;20312;-67
2022/06/29 01:56:47;;;;;;;303.47;284.97;;;14.70;76.40;;;;;;5006875;28;20327;-67
2022/06/29 01:59:13;;;;;;;236.20;222.67;;;14.70;76.50;;;;;;5022276;28;20277;-67
2022/06/29 02:01:39;;;;;;;230.67;217.23;;;14.60;76.80;;;;;;4973750;28;20130;-67
2022/06/29 02:04:05;;;;;;;284.57;267.90;;;14.60;76.70;;;;;;5007563;28;20379;-67
2022/06/29 02:06:31;;;;;;;208.67;197.20;;;14.60;77.00;;;;;;5006374;28;20494;-67
2022/06/29 02:08:57;;;;;;;195.93;184.57;;;14.60;77.00;;;;;;4991372;28;20293;-66
2022/06/29 02:11:23;;;;;;;206.20;195.33;;;14.60;76.90;;;;;;5000663;28;20856;-66
2022/06/29 02:13:49;;;;;;;181.37;171.63;;;14.60;77.20;;;;;;4998019;28;20038;-66
2022/06/29 02:16:15;;;;;;;187.10;176.33;;;14.70;77.20;;;;;;5007173;28;20284;-67
2022/06/29 02:18:41;;;;;;;161.23;152.70;;;14.70;77.20;;;;;;5007159;28;21112;-67
2022/06/29 02:21:06;;;;;;;240.60;227.73;;;14.70;77.50;;;;;;4998795;28;20046;-67
2022/06/29 02:23:32;;;;;;;271.43;255.63;;;14.80;77.60;;;;;;5007412;28;20319;-67
2022/06/29 02:25:58;;;;;;;282.07;266.20;;;14.80;77.60;;;;;;5007110;28;20052;-67
2022/06/29 02:28:23;;;;;;;287.53;270.47;;;14.80;77.80;;;;;;5007074;28;20038;-67
2022/06/29 02:36:17;;;;;;;226.40;213.17;;;15.00;77.30;;;;;;5005924;28;20346;-66
2022/06/29 02:38:43;;;;;;;163.57;154.40;;;15.00;77.00;;;;;;5007074;28;20313;-66
2022/06/29 02:41:09;;;;;;;275.93;260.20;;;15.00;76.80;;;;;;5006634;28;20050;-66
2022/06/29 02:43:34;;;;;;;237.30;223.70;;;15.00;77.00;;;;;;5006658;28;20574;-66
2022/06/29 02:46:00;;;;;;;296.27;278.73;;;15.00;76.90;;;;;;4980382;28;20045;-67
2022/06/29 02:48:26;;;;;;;236.57;222.87;;;15.10;76.80;;;;;;4983111;28;20042;-67
2022/06/29 02:50:52;;;;;;;239.60;225.30;;;15.10;76.90;;;;;;4996612;28;20050;-67
2022/06/29 02:53:18;;;;;;;279.33;263.33;;;15.10;76.80;;;;;;5003065;28;20293;-67
2022/06/29 02:55:43;;;;;;;264.67;249.53;;;15.10;76.80;;;;;;4989744;28;20065;-67
2022/06/29 02:58:09;;;;;;;231.40;217.73;;;15.10;77.00;;;;;;4989966;28;20057;-67
2022/06/29 03:00:35;;;;;;;287.53;270.63;;;15.00;76.80;;;;;;5005841;28;20065;-67
2022/06/29 03:03:00;;;;;;;272.00;256.00;;;15.00;76.80;;;;;;5005867;28;20050;-67
2022/06/29 03:05:26;;;;;;;231.27;217.53;;;15.00;77.00;;;;;;5006433;28;20479;-67
2022/06/29 03:07:52;;;;;;;265.53;250.37;;;14.90;76.90;;;;;;5010756;28;20141;-67
2022/06/29 03:10:17;;;;;;;253.57;239.00;;;14.90;76.90;;;;;;4985698;28;20052;-66
2022/06/29 03:12:43;;;;;;;311.67;292.47;;;14.90;76.90;;;;;;5005575;28;20485;-66
2022/06/29 03:15:09;;;;;;;289.47;272.20;;;14.90;76.70;;;;;;5005340;28;20045;-66
2022/06/29 03:17:35;;;;;;;258.70;243.60;;;14.90;76.90;;;;;;5004735;28;20651;-66
2022/06/29 03:20:04;;;;;;;302.10;283.03;;;14.90;77.20;;;;;;4981024;28;20084;-66
2022/06/29 03:22:30;;;;;;;328.50;307.47;;;14.90;77.00;;;;;;4986381;28;20072;-66
2022/06/29 03:24:56;;;;;;;365.10;341.73;;;14.90;76.90;;;;;;5005875;28;20289;-66
2022/06/29 03:27:22;;;;;;;254.93;239.30;;;14.90;77.30;;;;;;5005882;28;21035;-66
2022/06/29 03:29:47;;;;;;;351.30;329.33;;;14.90;76.90;;;;;;5005773;28;20093;-66
2022/06/29 03:32:13;;;;;;;333.43;312.27;;;14.80;76.90;;;;;;4995008;28;20056;-66
2022/06/29 03:34:39;;;;;;;321.87;302.13;;;14.80;76.80;;;;;;4989502;28;20499;-66
2022/06/29 03:37:05;;;;;;;251.83;237.40;;;14.90;76.80;;;;;;5004250;28;20483;-66
2022/06/29 03:39:30;;;;;;;287.57;271.17;;;14.90;76.70;;;;;;5005002;28;20369;-66
2022/06/29 03:41:56;;;;;;;287.50;270.73;;;14.90;76.90;;;;;;4988760;28;20518;-66
2022/06/29 03:44:22;;;;;;;292.50;275.93;;;14.90;76.70;;;;;;5005311;28;20099;-66
2022/06/29 03:46:47;;;;;;;227.13;213.87;;;14.90;77.20;;;;;;5002702;28;20044;-66
2022/06/29 03:49:13;;;;;;;187.10;175.23;;;14.90;76.90;;;;;;5005213;28;20521;-66
2022/06/29 03:51:39;;;;;;;176.07;165.63;;;14.90;76.90;;;;;;5016357;28;20037;-66
2022/06/29 03:54:05;;;;;;;231.00;216.87;;;15.00;76.90;;;;;;5011522;28;20049;-66
2022/06/29 03:56:31;;;;;;;210.40;197.43;;;15.00;76.90;;;;;;4986338;28;20050;-66
2022/06/29 03:58:57;;;;;;;252.47;235.80;;;15.10;76.90;;;;;;4993833;28;20674;-65
2022/06/29 04:01:23;;;;;;;236.97;221.50;;;15.20;76.60;;;;;;5005066;28;20521;-65
2022/06/29 04:03:48;;;;;;;220.67;206.67;;;15.30;76.40;;;;;;5005936;28;20296;-66
2022/06/29 04:06:14;;;;;;;196.67;184.30;;;15.40;76.40;;;;;;5005090;28;20068;-66
2022/06/29 04:08:40;;;;;;;161.63;151.83;;;15.40;76.10;;;;;;4997125;28;20089;-66
2022/06/29 04:11:48;;;;;;;243.20;227.80;;;15.50;76.10;;;;;;5004470;28;20374;-66
2022/06/29 04:13:55;;;;;;;259.33;241.90;;;15.60;76.00;;;;;;5021327;28;20448;-65
2022/06/29 04:16:21;;;;;;;253.67;236.43;;;15.60;75.90;;;;;;5005160;28;20446;-65
2022/06/29 04:18:47;;;;;;;239.10;223.00;;;15.70;75.50;;;;;;5021428;28;20354;-65
2022/06/29 04:21:12;;;;;;;288.20;269.07;;;15.80;75.20;;;;;;5004986;28;20773;-66
2022/06/29 04:23:38;;;;;;;273.87;254.03;;;15.90;75.00;;;;;;4996468;28;20043;-66
2022/06/29 04:26:04;;;;;;;276.90;257.17;;;15.90;74.80;;;;;;4987953;28;20038;-66
2022/06/29 04:28:30;;;;;;;315.10;292.97;;;15.90;74.70;;;;;;5004379;28;20176;-66
2022/06/29 04:30:56;;;;;;;262.33;244.10;;;16.00;74.70;;;;;;4991907;28;20069;-66
2022/06/29 04:33:22;;;;;;;245.10;227.77;;;16.00;74.30;;;;;;5008737;28;20053;-66
2022/06/29 04:35:47;;;;;;;327.47;304.13;;;16.10;74.30;;;;;;5003513;28;20376;-66
2022/06/29 04:38:13;;;;;;;372.57;345.60;;;16.10;74.10;;;;;;5019491;28;20387;-66
2022/06/29 04:40:39;;;;;;;340.17;316.37;;;16.20;73.80;;;;;;5000582;28;20034;-66
2022/06/29 04:43:04;;;;;;;357.53;332.23;;;16.20;73.70;;;;;;5000119;28;20044;-66
2022/06/29 04:48:14;;;;;;;365.03;338.83;;;16.40;73.50;;;;;;5008785;28;20049;-66
2022/06/29 04:50:40;;;;;;;350.47;324.80;;;16.40;73.20;;;;;;5007871;28;20285;-66
2022/06/29 04:53:06;;;;;;;359.43;334.70;;;16.60;73.30;;;;;;5010618;28;20038;-66
2022/06/29 04:55:31;;;;;;;315.93;294.23;;;16.80;72.40;;;;;;4994587;28;20142;-66
2022/06/29 04:57:57;;;;;;;395.90;368.07;;;16.80;72.10;;;;;;4987465;28;20397;-66
2022/06/29 05:00:23;;;;;;;377.47;351.30;;;16.90;71.90;;;;;;4990088;28;20453;-66
2022/06/29 05:02:49;;;;;;;399.33;370.73;;;16.90;71.70;;;;;;5022726;28;20038;-66
2022/06/29 05:05:14;;;;;;;330.13;305.93;;;17.00;71.50;;;;;;4991563;28;20470;-67
2022/06/29 05:07:40;;;;;;;388.27;360.77;;;17.00;71.20;;;;;;5007682;28;20046;-67
2022/06/29 05:10:06;;;;;;;374.07;346.77;;;17.10;71.20;;;;;;5006282;28;20509;-67
2022/06/29 05:12:32;;;;;;;340.90;315.40;;;17.40;71.60;;;;;;5016462;28;20053;-67
2022/06/29 05:14:58;;;;;;;410.47;378.57;;;18.20;70.60;;;;;;4988856;28;20296;-67
2022/06/29 05:17:24;;;;;;;443.13;408.67;;;19.20;68.10;;;;;;5008824;28;20382;-67
2022/06/29 05:19:50;;;;;;;501.90;461.50;;;20.00;65.40;;;;;;4984960;28;20512;-67
2022/06/29 05:22:16;;;;;;;528.27;487.60;;;20.10;63.50;;;;;;5007531;28;20288;-67
2022/06/29 05:24:42;;;;;;;418.00;386.00;;;19.70;63.70;;;;;;5007177;28;20103;-67
2022/06/29 05:27:07;;;;;;;494.13;457.23;;;19.40;65.10;;;;;;5007309;28;20402;-67
2022/06/29 05:29:33;;;;;;;494.93;456.63;;;20.00;64.80;;;;;;5021761;28;20151;-67
2022/06/29 05:31:59;;;;;;;516.47;476.20;;;20.30;63.20;;;;;;5008141;28;20049;-67
2022/06/29 05:34:24;;;;;;;684.23;631.30;;;20.80;62.70;;;;;;5007026;28;20132;-67
2022/06/29 05:36:50;;;;;;;618.53;571.13;;;21.30;60.90;;;;;;5007771;28;20038;-67
2022/06/29 05:39:16;;;;;;;671.67;618.40;;;21.90;59.90;;;;;;5006288;28;20119;-67
2022/06/29 05:41:41;;;;;;;671.47;620.50;;;22.40;58.30;;;;;;5007604;28;20041;-67
2022/06/29 05:44:07;;;;;;;694.40;641.43;;;22.90;57.20;;;;;;5005649;28;20038;-67
2022/06/29 05:46:33;;;;;;;739.60;683.37;;;23.20;56.10;;;;;;4990294;28;20041;-67
2022/06/29 05:48:58;;;;;;;749.03;691.97;;;23.60;55.00;;;;;;5006555;28;20129;-67
2022/06/29 05:51:24;;;;;;;678.67;627.67;;;23.80;54.20;;;;;;5006030;28;20041;-67
2022/06/29 05:53:50;;;;;;;773.90;714.57;;;23.90;54.00;;;;;;5007370;28;20046;-67
2022/06/29 05:56:17;;;;;;;702.67;649.27;;;24.10;54.20;;;;;;4991608;28;20157;-67
2022/06/29 05:58:43;;;;;;;683.13;631.00;;;24.40;53.70;;;;;;5007561;28;20406;-67
2022/06/29 06:01:09;;;;;;;674.47;622.87;;;24.70;52.90;;;;;;4992569;28;20069;-66
2022/06/29 06:03:36;;;;;;;720.53;665.17;;;24.90;52.50;;;;;;4997927;28;20042;-67
2022/06/29 06:06:02;;;;;;;701.27;647.20;;;25.00;51.80;;;;;;5006918;28;20494;-67
2022/06/29 06:08:28;;;;;;;721.60;666.90;;;25.00;51.60;;;;;;5007338;28;20132;-67
2022/06/29 06:10:54;;;;;;;710.53;655.93;;;25.10;51.10;;;;;;5010194;28;20164;-67
2022/06/29 06:13:19;;;;;;;756.13;698.10;;;25.20;51.10;;;;;;5007522;28;20068;-67
2022/06/29 06:15:46;;;;;;;664.90;615.27;;;25.30;50.30;;;;;;4990167;28;20052;-67
2022/06/29 06:18:12;;;;;;;708.40;654.77;;;25.20;50.00;;;;;;5007308;28;20053;-67
2022/06/29 06:20:37;;;;;;;671.10;620.70;;;25.20;50.30;;;;;;4995015;28;20034;-67
2022/06/29 06:23:03;;;;;;;728.53;672.50;;;25.20;50.30;;;;;;5006992;28;20045;-67
2022/06/29 06:25:32;;;;;;;674.17;624.17;;;25.40;50.40;;;;;;5006495;28;20045;-67
2022/06/29 06:27:58;;;;;;;717.33;662.97;;;25.50;49.80;;;;;;5007085;28;20116;-67
2022/06/29 06:30:26;;;;;;;675.73;625.23;;;25.70;49.80;;;;;;5006286;28;20137;-67
2022/06/29 06:32:52;;;;;;;643.80;594.30;;;25.70;49.30;;;;;;5006809;28;20041;-67
2022/06/29 06:35:19;;;;;;;650.87;601.60;;;25.80;49.90;;;;;;5005893;28;20076;-67
2022/06/29 06:37:46;;;;;;;710.83;657.03;;;25.90;49.60;;;;;;5006427;28;20060;-67
2022/06/29 06:42:57;;;;;;;733.05;677.88;;;25.80;49.00;;;;;;5006799;28;20095;-67
2022/06/29 06:45:23;;;;;;;698.43;646.23;;;25.80;49.30;;;;;;4989423;28;20050;-67
2022/06/29 06:47:49;;;;;;;704.17;652.60;;;25.70;49.40;;;;;;4990616;28;20075;-67
2022/06/29 06:50:15;;;;;;;675.60;626.53;;;25.60;49.50;;;;;;4989573;28;20100;-67
2022/06/29 06:52:41;;;;;;;632.17;585.33;;;25.50;49.90;;;;;;5022560;28;20046;-67
2022/06/29 06:55:07;;;;;;;674.23;625.37;;;25.40;49.80;;;;;;4989441;28;20089;-67
2022/06/29 06:57:33;;;;;;;710.27;657.67;;;25.30;50.30;;;;;;5004114;28;20486;-67
2022/06/29 06:59:59;;;;;;;704.80;652.90;;;25.10;50.70;;;;;;5019720;28;20458;-67
2022/06/29 07:02:24;;;;;;;684.80;633.70;;;25.00;51.00;;;;;;4990304;28;20042;-67
2022/06/29 07:04:50;;;;;;;701.43;649.63;;;24.90;51.70;;;;;;5019273;28;20045;-67
2022/06/29 07:07:16;;;;;;;672.37;624.73;;;24.80;51.90;;;;;;5006377;28;20532;-67
2022/06/29 07:09:42;;;;;;;621.30;577.67;;;24.70;51.50;;;;;;5005292;28;20050;-67
2022/06/29 07:12:08;;;;;;;639.23;595.13;;;24.50;51.30;;;;;;5006125;28;20560;-67
2022/06/29 07:14:34;;;;;;;634.43;588.47;;;24.10;50.50;;;;;;5018518;28;20039;-67
2022/06/29 07:16:59;;;;;;;608.33;567.17;;;23.70;51.10;;;;;;5022875;28;20049;-67
2022/06/29 07:19:25;;;;;;;673.03;625.93;;;23.50;51.80;;;;;;5005827;28;20096;-67
2022/06/29 07:21:51;;;;;;;635.93;590.67;;;23.30;53.20;;;;;;5006292;28;20422;-67
2022/06/29 07:24:16;;;;;;;616.03;573.70;;;23.20;54.10;;;;;;4989821;28;20080;-67
2022/06/29 07:26:42;;;;;;;694.07;645.67;;;23.00;53.00;;;;;;5006138;28;20108;-67
2022/06/29 07:29:08;;;;;;;639.50;594.60;;;22.90;53.50;;;;;;5005269;28;20060;-67
2022/06/29 07:31:33;;;;;;;664.50;619.63;;;22.80;54.40;;;;;;5005562;28;20422;-67
2022/06/29 07:33:59;;;;;;;670.87;623.33;;;22.80;54.60;;;;;;5018880;28;20041;-67
2022/06/29 07:36:29;;;;;;;645.37;600.33;;;22.70;54.70;;;;;;5020611;28;20038;-67
2022/06/29 07:38:54;;;;;;;649.07;603.97;;;22.70;54.30;;;;;;5004905;28;20042;-67
2022/06/29 07:41:20;;;;;;;570.63;530.00;;;22.70;54.20;;;;;;5019289;28;20088;-67
2022/06/29 07:43:46;;;;;;;655.50;608.90;;;22.70;54.80;;;;;;5005106;28;20165;-67
2022/06/29 07:46:12;;;;;;;613.40;570.20;;;22.80;54.90;;;;;;5006100;28;20580;-67
2022/06/29 07:48:38;;;;;;;592.57;552.30;;;22.80;54.90;;;;;;4989126;28;20046;-67
2022/06/29 07:51:03;;;;;;;635.43;591.73;;;22.90;54.80;;;;;;5005523;28;20042;-67
2022/06/29 07:53:29;;;;;;;614.83;572.70;;;23.00;54.40;;;;;;4985526;28;20050;-67
2022/06/29 07:55:55;;;;;;;636.67;593.80;;;23.10;53.50;;;;;;5005404;28;20068;-67
2022/06/29 07:58:21;;;;;;;616.23;573.93;;;23.20;54.00;;;;;;5006175;28;20124;-67
2022/06/29 08:00:48;;;;;;;604.57;563.17;;;23.30;54.00;;;;;;4988880;28;20042;-67
2022/06/29 08:03:14;;;;;;;644.67;598.87;;;23.40;54.10;;;;;;5004894;28;20042;-67
2022/06/29 08:05:40;;;;;;;656.77;610.23;;;23.60;54.60;;;;;;5008094;28;20446;-67
2022/06/29 08:08:06;;;;;;;627.20;582.80;;;23.70;54.10;;;;;;5009335;28;20096;-68
2022/06/29 08:10:33;;;;;;;666.63;619.63;;;23.70;53.80;;;;;;5008922;28;20124;-67
2022/06/29 08:12:59;;;;;;;637.63;593.53;;;23.80;53.30;;;;;;5008910;28;20128;-67
2022/06/29 08:15:26;;;;;;;585.40;544.93;;;23.90;52.90;;;;;;5009236;28;20057;-67
2022/06/29 08:17:53;;;;;;;603.93;562.60;;;24.00;52.50;;;;;;5008979;28;20033;-67
2022/06/29 08:20:19;;;;;;;632.37;587.97;;;24.00;52.00;;;;;;5009194;28;20034;-67
2022/06/29 08:22:45;;;;;;;587.80;546.87;;;24.10;52.30;;;;;;5008736;28;20045;-67
2022/06/29 08:25:11;;;;;;;591.00;549.83;;;24.20;52.10;;;;;;5009190;28;20050;-67
2022/06/29 08:27:38;;;;;;;611.33;569.33;;;24.20;51.80;;;;;;5008699;28;20057;-67
2022/06/29 08:30:06;;;;;;;603.17;561.67;;;24.30;52.00;;;;;;5009152;28;20048;-67
2022/06/29 08:32:32;;;;;;;653.50;607.93;;;24.40;52.00;;;;;;4992088;28;20045;-67
2022/06/29 08:35:00;;;;;;;626.60;583.87;;;24.40;51.60;;;;;;5008661;28;20637;-68
2022/06/29 08:37:29;;;;;;;553.10;515.77;;;24.50;51.90;;;;;;5008822;28;20125;-67
2022/06/29 08:39:55;;;;;;;640.17;596.80;;;24.60;51.50;;;;;;5008518;28;20042;-67
2022/06/29 08:42:22;;;;;;;618.17;574.83;;;24.70;50.70;;;;;;4993112;28;20038;-67
2022/06/29 08:44:49;;;;;;;618.73;575.60;;;24.80;50.90;;;;;;4992553;28;20045;-67
2022/06/29 08:47:15;;;;;;;601.67;559.53;;;25.00;51.80;;;;;;5000425;28;20042;-67
2022/06/29 08:49:41;;;;;;;612.27;570.03;;;25.10;51.40;;;;;;4985987;28;20188;-68
2022/06/29 08:52:09;;;;;;;568.03;528.80;;;25.20;50.80;;;;;;5009133;28;20545;-67
2022/06/29 08:54:37;;;;;;;596.43;555.37;;;25.20;51.00;;;;;;5008539;28;20062;-67
2022/06/29 08:57:04;;;;;;;656.10;608.80;;;25.30;50.30;;;;;;5008638;28;20402;-67
2022/06/29 08:59:33;;;;;;;672.37;625.13;;;25.50;50.80;;;;;;4991665;28;20407;-67
2022/06/29 09:01:59;;;;;;;640.10;594.80;;;25.60;50.20;;;;;;5004704;28;20048;-66
2022/06/29 09:04:24;;;;;;;612.40;569.40;;;25.70;49.60;;;;;;5008140;28;20042;-67
2022/06/29 09:06:55;;;;;;;608.33;566.50;;;25.80;49.00;;;;;;4991896;28;20129;-66
2022/06/29 09:09:22;;;;;;;613.53;571.60;;;25.90;48.50;;;;;;5008307;28;20149;-65
2022/06/29 09:11:50;;;;;;;619.07;575.73;;;26.10;48.60;;;;;;5008140;28;20107;-66
2022/06/29 09:14:25;;;;;;;655.60;610.07;;;26.30;48.70;;;;;;5000150;28;20042;-66
2022/06/29 09:17:02;;;;;;;618.30;576.47;;;26.40;48.20;;;;;;5004372;28;20077;-66
2022/06/29 09:19:42;;;;;;;595.97;556.20;;;26.40;46.80;;;;;;5007467;28;20441;-66
2022/06/29 09:22:09;;;;;;;666.57;620.53;;;26.40;47.80;;;;;;5024829;28;20505;-65
2022/06/29 09:24:34;;;;;;;647.77;603.90;;;26.40;48.00;;;;;;5007836;28;20034;-65
2022/06/29 09:27:03;;;;;;;649.40;604.97;;;26.60;48.70;;;;;;5008059;28;20053;-66
2022/06/29 09:29:30;;;;;;;673.83;626.03;;;26.60;48.10;;;;;;5008064;28;20719;-66
2022/06/29 09:32:04;;;;;;;691.23;642.53;;;26.80;48.30;;;;;;5008054;28;20050;-66
2022/06/29 09:34:56;;;;;;;643.40;598.80;;;27.00;47.40;;;;;;5007405;28;20042;-67
2022/06/29 09:37:23;;;;;;;689.60;641.77;;;27.10;47.00;;;;;;4989403;28;20085;-67
2022/06/29 09:39:51;;;;;;;645.50;601.57;;;27.20;46.50;;;;;;5020114;28;20044;-67
2022/06/29 09:42:21;;;;;;;683.60;637.10;;;27.20;46.00;;;;;;5008050;28;20034;-67
2022/06/29 09:44:48;;;;;;;684.10;637.63;;;27.10;46.20;;;;;;5007013;28;20137;-67
2022/06/29 09:47:16;;;;;;;699.97;652.80;;;27.10;46.60;;;;;;5007577;28;20104;-67
2022/06/29 09:49:48;;;;;;;638.50;595.30;;;27.20;47.30;;;;;;4990942;28;20058;-67
2022/06/29 09:52:17;;;;;;;646.87;601.80;;;27.20;46.30;;;;;;5007765;28;20632;-67
2022/06/29 09:54:56;;;;;;;638.50;594.13;;;27.20;46.10;;;;;;5006979;28;20077;-67
2022/06/29 09:57:25;;;;;;;686.40;639.77;;;27.30;46.50;;;;;;5007739;28;20050;-67
2022/06/29 10:02:51;;;;;;;677.30;631.10;;;27.20;45.60;;;;;;5021733;28;20056;-67
2022/06/29 10:05:20;;;;;;;666.00;620.63;;;27.20;46.90;;;;;;5020857;28;20521;-67
2022/06/29 10:07:54;;;;;;;594.37;553.03;;;27.30;46.40;;;;;;5007424;28;20116;-67
2022/06/29 10:10:23;;;;;;;656.10;611.60;;;27.50;46.90;;;;;;5007638;28;20955;-67
2022/06/29 10:16:00;;;;;;;623.57;581.10;;;27.60;46.00;;;;;;5012408;28;20507;-67
2022/06/29 10:19:07;;;;;;;687.87;640.57;;;27.60;45.30;;;;;;4987678;28;20050;-67
2022/06/29 10:21:33;;;;;;;637.80;594.77;;;27.60;45.90;;;;;;4949935;28;20482;-67
2022/06/29 10:24:03;;;;;;;658.33;613.67;;;27.70;45.60;;;;;;4934364;28;20046;-67
2022/06/29 10:26:32;;;;;;;610.73;570.37;;;27.70;45.80;;;;;;4966614;28;20049;-67
2022/06/29 10:29:16;;;;;;;618.90;575.57;;;27.80;44.70;;;;;;5006112;28;20120;-67
2022/06/29 10:31:54;;;;;;;646.43;602.57;;;27.80;44.90;;;;;;5015826;28;20085;-66
2022/06/29 10:34:32;;;;;;;645.40;600.80;;;27.80;45.20;;;;;;4990164;28;20042;-66
2022/06/29 10:37:14;;;;;;;627.63;584.13;;;27.80;45.20;;;;;;5006251;28;20057;-67
2022/06/29 10:39:46;;;;;;;623.17;582.90;;;27.80;45.10;;;;;;5009976;28;20080;-67
2022/06/29 10:45:19;;;;;;;672.50;627.17;;;27.70;45.20;;;;;;5006232;28;20069;-67
2022/06/29 10:47:54;;;;;;;579.70;539.60;;;27.90;45.60;;;;;;4974680;28;20133;-67
2022/06/29 10:50:24;;;;;;;624.97;583.20;;;28.00;45.40;;;;;;4980456;28;20081;-67
2022/06/29 10:52:55;;;;;;;646.73;602.23;;;28.20;44.80;;;;;;5003174;28;20052;-67
2022/06/29 10:55:22;;;;;;;601.20;562.00;;;28.40;43.60;;;;;;5006326;28;20085;-67
2022/06/29 10:57:47;;;;;;;544.83;513.77;;;28.50;43.00;;;;;;5006281;28;20046;-67
2022/06/29 11:00:25;;;;;;;508.27;478.70;;;28.60;41.00;;;;;;5006220;28;20052;-67
2022/06/29 11:02:51;;;;;;;524.73;493.73;;;28.80;41.40;;;;;;5006613;28;20121;-67
2022/06/29 11:05:17;;;;;;;503.97;474.63;;;28.90;41.90;;;;;;5006565;28;20498;-67
2022/06/29 11:13:30;;;;;;;599.33;562.07;;;29.40;40.70;;;;;;5003979;28;20053;-67
2022/06/29 11:15:58;;;;;;;561.10;528.63;;;29.50;39.60;;;;;;5002934;28;20125;-67
2022/06/29 11:18:28;;;;;;;559.80;526.00;;;29.60;40.50;;;;;;5005545;28;20679;-67
2022/06/29 11:21:02;;;;;;;523.13;491.70;;;29.70;40.20;;;;;;4973033;28;20494;-67
2022/06/29 11:23:29;;;;;;;587.60;552.17;;;29.80;40.50;;;;;;4990693;28;20049;-67
2022/06/29 11:25:56;;;;;;;577.07;542.20;;;29.90;41.10;;;;;;4996801;28;20061;-67
2022/06/29 11:28:25;;;;;;;590.73;554.33;;;30.10;40.50;;;;;;5006323;28;20052;-66
2022/06/29 11:30:59;;;;;;;559.30;524.93;;;30.10;39.20;;;;;;5006093;28;20049;-66
2022/06/29 11:33:30;;;;;;;527.75;495.92;;;30.10;39.30;;;;;;4986169;28;20053;-66
2022/06/29 11:35:56;;;;;;;610.73;573.60;;;30.20;40.00;;;;;;5000332;28;20038;-66
2022/06/29 11:38:28;;;;;;;570.33;534.87;;;30.20;39.00;;;;;;4979904;28;20090;-66
2022/06/29 11:40:54;;;;;;;586.00;550.27;;;30.10;39.20;;;;;;5005863;28;20092;-66
2022/06/29 11:43:21;;;;;;;601.97;563.40;;;30.10;39.30;;;;;;5004178;28;20045;-66
2022/06/29 11:45:49;;;;;;;641.13;600.63;;;30.10;38.80;;;;;;5021832;28;20034;-66
2022/06/29 11:48:20;;;;;;;623.90;584.53;;;30.10;37.90;;;;;;4989686;28;20050;-66
2022/06/29 11:50:59;;;;;;;635.03;594.77;;;30.10;38.00;;;;;;5005408;28;20045;-67
2022/06/29 11:53:44;;;;;;;590.27;553.57;;;30.20;37.60;;;;;;5005031;28;20073;-67
2022/06/29 11:56:23;;;;;;;650.30;607.27;;;30.20;38.30;;;;;;4989114;28;20058;-67
2022/06/29 11:58:50;;;;;;;607.07;568.47;;;30.20;37.40;;;;;;5005242;28;20042;-67
2022/06/29 12:01:18;;;;;;;623.50;584.67;;;30.10;38.40;;;;;;4986904;28;20046;-67
2022/06/29 12:03:53;;;;;;;623.77;583.60;;;30.10;39.70;;;;;;5004617;28;20049;-68
2022/06/29 12:06:24;;;;;;;592.70;555.70;;;30.20;39.30;;;;;;5005745;28;20045;-67
2022/06/29 12:08:51;;;;;;;655.80;612.47;;;30.30;39.90;;;;;;5005357;28;20125;-67
2022/06/29 12:11:16;;;;;;;638.40;598.33;;;30.30;38.40;;;;;;4989477;28;20449;-67
2022/06/29 12:13:43;;;;;;;625.70;586.80;;;30.30;39.30;;;;;;5001902;28;20042;-67
2022/06/29 12:16:11;;;;;;;646.67;605.70;;;30.30;38.60;;;;;;4995687;28;20125;-67
2022/06/29 12:18:37;;;;;;;641.60;600.83;;;30.20;38.20;;;;;;4953129;28;20041;-67
2022/06/29 12:21:03;;;;;;;653.30;610.90;;;30.20;38.90;;;;;;4996956;28;20042;-67
2022/06/29 12:23:31;;;;;;;654.93;611.93;;;30.10;37.90;;;;;;4988898;28;20530;-67
2022/06/29 12:25:57;;;;;;;714.53;668.53;;;30.10;38.20;;;;;;5004635;28;20073;-67
2022/06/29 12:28:23;;;;;;;647.03;605.80;;;30.20;38.20;;;;;;4985354;28;20046;-67
2022/06/29 12:30:51;;;;;;;588.73;550.53;;;30.30;38.30;;;;;;5004385;28;20556;-67
2022/06/29 12:33:17;;;;;;;620.37;579.47;;;30.10;37.90;;;;;;5001635;28;20073;-67
2022/06/29 12:35:43;;;;;;;642.17;600.87;;;30.00;37.80;;;;;;4984319;28;20490;-67